Home PIREPS Pireps

Flight SAB3586

  • Submitted By: Carl Hermans
  • Departure Airport: Lyon-Saint-Exupery (LFLL)
  • Arrival Airport: Bruxelles National (EBBR)
  • Aircraft: B737-500 (OO-SAB)
  • Flight Time: 01.14
  • Date Submitted: 12/03/2017
  • Status: Accepted
Flight Details
Gross Revenue:
(131 load / € 0.00 per unit
€ 0.00
Fuel Cost:
(8526 fuel used @ 5.1 / unit)
€ 43,482.60

Additional Log Information:

View Log

Aircraft Used in flight is SSG B748-Inter_V1.4 Lufthansa
15:30Flaps 5 Selected at 1420ft and 0kts
15:30 Engine 1 Started
15:30 Engine 2 Started
15:30 Engine 3 Started
15:30 Engine 4 Started
15:30 Strobe Lights ON at 1420 AGL
15:30 Navigation Lights ON at 1420 AGL
15:30 Taxi Lights ON at 1420 AGL
15:30 Beacon Lights ON at 1420 AGL
15:30 Brakes are On
15:34Flaps Retracted at 820ft and 5kts
15:38Flaps 1 Selected at 820ft and 5kts
15:38Flaps 2 Selected at 820ft and 5kts
15:38Flaps 5 Selected at 820ft and 5kts
15:39 Taxi Lights OFF at 820 AGL
15:39 Brakes are Released
15:40 You Took off @ 162 Knots and Flaps at Position 5
Departure Weather
LFLL 121400Z 34009KT 9999 FEW036 BKN063 17/07 Q1012 NOSIGrn
15:40 Landing Gear Up @ 176 Knots and 920 Feet
15:40Flaps 4 Selected at 2110ft and 219kts
15:40Flaps 2 Selected at 2160ft and 219kts
15:40Flaps 1 Selected at 2330ft and 221kts
15:40Flaps Retracted at 2380ft and 222kts
15:42 Above FL100 you need to switch of the landing lights
15:48 You exceeded maximum bank angle
16:35Flaps 4 Selected at 3720ft and 177kts
16:36Flaps 5 Selected at 3760ft and 169kts
16:38 Landing Gear Down @ 170 Knots and 2270 Feet
16:38Flaps 6 Selected at 1940ft and 169kts
16:40 You Landed @ 145 Knots and with -50 Vertical Speed
Arrival Weather
EBBR 121520Z 12005KT 070V150 CAVOK 16/02 Q1013 NOSIGrn
16:41 Brakes are On
16:41 Brakes are Released
16:41 Brakes are On
16:41 Brakes are Released
16:41Flaps Retracted at 160ft and 0kts
16:45 Brakes are On
16:45 Brussels Bel-Track1.0.0.11

Route Map

Corporate About Us Our Team Vacancies Information Fleet Route Network Rules and Regulations Operations Flight Schedules Event Center Tours Partners IVAO Vatsim Acars dev FSCB

fb Users Online Belgium Roger Wijns, United Kingdom David Chenery,
2 Pilot(s) and 129 Guest(s) Online
CMS by phpVMS - Design by Crazycreatives.com - Copyright © 2018 - Brussels Airlines Virtual